Time;durP1;ratioP1;P1;durP2;ratioP2;P2;SDS_P1;SDS_P2;PMS_P1;PMS_P2;Temp;Humidity;BMP_temperature;BMP_pressure;BME280_temperature;BME280_humidity;BME280_pressure;Samples;Min_cycle;Max_cycle;Signal;HPM_P1;HPM_P2
2023/09/09 00:00:46;;;;;;;;;18.67;17.00;;;;;24.42;78.58;101339.53;5104167;27;45424;-74
2023/09/09 00:03:12;;;;;;;;;22.00;18.00;;;;;24.40;78.53;101338.84;5104405;27;45441;-73
2023/09/09 00:05:37;;;;;;;;;22.67;18.33;;;;;24.36;78.98;101339.13;5104554;27;45397;-74
2023/09/09 00:08:03;;;;;;;;;18.67;16.33;;;;;24.26;79.56;101330.19;5108652;27;45365;-73
2023/09/09 00:10:29;;;;;;;;;22.67;21.33;;;;;24.32;79.96;101343.13;5114537;27;47233;-74
2023/09/09 00:12:56;;;;;;;;;19.33;16.67;;;;;24.26;80.63;101342.88;5113237;27;45478;-74
2023/09/09 00:15:22;;;;;;;;;11.67;9.00;;;;;24.25;81.07;101347.41;5117804;27;45476;-74
2023/09/09 00:17:47;;;;;;;;;24.00;20.00;;;;;24.23;81.37;101344.03;5113086;27;45468;-73
2023/09/09 00:20:14;;;;;;;;;20.00;18.33;;;;;24.19;81.30;101348.00;5102948;27;46306;-74
2023/09/09 00:22:40;;;;;;;;;21.67;21.00;;;;;24.13;82.98;101335.09;5106145;27;45303;-74
2023/09/09 00:25:06;;;;;;;;;21.67;21.00;;;;;24.15;82.20;101337.63;5108235;27;45368;-73
2023/09/09 00:27:32;;;;;;;;;20.67;20.67;;;;;24.14;82.76;101342.19;5113343;27;45525;-74
2023/09/09 00:29:57;;;;;;;;;21.67;19.00;;;;;24.10;83.43;101332.63;5106110;27;45368;-73
2023/09/09 00:32:22;;;;;;;;;26.33;25.00;;;;;24.09;82.92;101339.03;5112354;27;45373;-73
2023/09/09 00:34:48;;;;;;;;;21.67;20.33;;;;;24.06;82.98;101336.63;5116475;27;45336;-74
2023/09/09 00:37:13;;;;;;;;;23.67;21.67;;;;;24.04;84.47;101335.94;5101471;27;45354;-74
2023/09/09 00:39:38;;;;;;;;;25.33;22.00;;;;;24.03;85.15;101330.66;5107266;27;46092;-73
2023/09/09 00:42:04;;;;;;;;;21.67;19.00;;;;;23.94;85.17;101324.28;5104001;27;45374;-74
2023/09/09 00:44:29;;;;;;;;;27.33;22.67;;;;;23.99;85.19;101332.81;5115368;27;45463;-74
2023/09/09 00:46:55;;;;;;;;;22.33;22.33;;;;;23.96;85.26;101327.69;5107361;27;45385;-73
2023/09/09 00:49:21;;;;;;;;;27.67;22.33;;;;;23.95;85.67;101333.25;5122054;27;45277;-74
2023/09/09 00:51:47;;;;;;;;;25.67;24.00;;;;;23.90;85.75;101327.41;5114330;27;45412;-74
2023/09/09 00:54:12;;;;;;;;;19.67;19.67;;;;;23.86;86.43;101330.41;5115102;27;45302;-74
2023/09/09 00:56:38;;;;;;;;;23.33;21.33;;;;;23.82;86.64;101331.69;5106486;27;45508;-73
2023/09/09 00:59:03;;;;;;;;;27.67;25.00;;;;;23.76;86.71;101326.00;5119246;27;45649;-73
2023/09/09 01:01:31;;;;;;;;;25.00;24.00;;;;;23.72;87.25;101320.03;5106448;27;45365;-73
2023/09/09 01:03:56;;;;;;;;;28.67;23.33;;;;;23.79;87.62;101340.09;5108419;27;45341;-74
2023/09/09 01:06:22;;;;;;;;;25.00;23.67;;;;;23.76;88.04;101345.78;5114593;27;45449;-73
2023/09/09 01:08:48;;;;;;;;;19.00;18.67;;;;;23.73;88.88;101337.09;5104827;27;47933;-74
2023/09/09 01:11:14;;;;;;;;;25.33;23.00;;;;;23.71;89.54;101336.41;5114289;27;45549;-74
2023/09/09 01:13:39;;;;;;;;;26.00;25.00;;;;;23.68;89.12;101336.69;5108323;27;45356;-73
2023/09/09 01:16:05;;;;;;;;;24.33;23.67;;;;;23.68;89.54;101340.25;5111668;27;45463;-73
2023/09/09 01:18:34;;;;;;;;;21.33;20.00;;;;;23.65;88.78;101337.84;5115966;27;47059;-74
2023/09/09 01:21:09;;;;;;;;;22.00;20.33;;;;;23.63;89.60;101338.97;5099641;27;45482;-73
2023/09/09 01:23:35;;;;;;;;;23.67;21.67;;;;;23.56;90.20;101322.47;5111919;27;45599;-74
2023/09/09 01:26:00;;;;;;;;;21.00;20.00;;;;;23.52;90.35;101322.94;5121145;27;45433;-73
2023/09/09 01:28:26;;;;;;;;;18.00;18.00;;;;;23.53;90.92;101328.16;5101539;27;45499;-73
2023/09/09 01:30:52;;;;;;;;;25.67;20.33;;;;;23.52;90.95;101325.63;5108942;27;45496;-73
2023/09/09 01:33:17;;;;;;;;;25.67;23.67;;;;;23.48;90.99;101329.59;5114550;27;45406;-73
2023/09/09 01:35:44;;;;;;;;;24.00;21.33;;;;;23.49;90.71;101334.00;5121546;27;45347;-73
2023/09/09 01:38:10;;;;;;;;;25.00;21.33;;;;;23.45;91.98;101332.59;5121413;27;47266;-74
2023/09/09 01:40:35;;;;;;;;;23.00;20.33;;;;;23.44;91.79;101339.84;5123120;27;45431;-74
2023/09/09 01:43:00;;;;;;;;;23.67;22.33;;;;;23.43;92.68;101337.28;5113749;27;45624;-73
2023/09/09 01:45:26;;;;;;;;;24.33;21.33;;;;;23.37;92.70;101325.16;5104432;27;47056;-73
2023/09/09 01:47:51;;;;;;;;;23.33;20.33;;;;;23.37;92.13;101333.25;5105776;27;45307;-73
2023/09/09 01:50:16;;;;;;;;;27.33;21.67;;;;;23.34;92.55;101337.09;5101676;27;45450;-73
2023/09/09 01:52:42;;;;;;;;;24.67;23.00;;;;;23.34;93.00;101338.94;5116191;27;45322;-73
2023/09/09 01:55:07;;;;;;;;;21.00;21.00;;;;;23.19;92.98;101316.94;5114286;27;45388;-74
2023/09/09 01:57:33;;;;;;;;;27.33;23.67;;;;;23.32;92.98;101340.94;5104428;27;46501;-74
2023/09/09 01:59:58;;;;;;;;;27.33;24.33;;;;;23.27;93.11;101324.28;5102372;27;45401;-73
2023/09/09 02:02:24;;;;;;;;;23.67;23.67;;;;;23.23;93.20;101331.00;5114219;27;45723;-73
2023/09/09 02:04:49;;;;;;;;;20.67;19.00;;;;;23.26;93.88;101336.97;5120435;27;45622;-72
2023/09/09 02:07:14;;;;;;;;;24.33;21.33;;;;;23.18;93.65;101330.53;5108202;27;47872;-73
2023/09/09 02:09:41;;;;;;;;;24.67;22.33;;;;;23.22;94.02;101340.94;5110277;27;45476;-73
2023/09/09 02:12:07;;;;;;;;;22.67;21.33;;;;;23.14;94.55;101326.41;5115062;27;45500;-73
2023/09/09 02:14:32;;;;;;;;;24.67;22.00;;;;;23.17;95.51;101332.38;5108272;27;45485;-72
2023/09/09 02:16:58;;;;;;;;;25.00;25.00;;;;;23.15;94.67;101329.00;5115573;27;45375;-73
2023/09/09 02:19:24;;;;;;;;;26.00;22.67;;;;;23.09;94.98;101326.00;5110375;27;45540;-73
2023/09/09 02:21:50;;;;;;;;;23.67;20.00;;;;;23.07;95.46;101317.19;5120477;27;45353;-73
2023/09/09 02:24:15;;;;;;;;;26.00;23.67;;;;;22.98;95.04;101316.16;5118962;27;45389;-73
2023/09/09 02:26:40;;;;;;;;;21.67;21.33;;;;;23.09;95.74;101331.41;5120222;27;45507;-73
2023/09/09 02:29:06;;;;;;;;;24.00;24.00;;;;;23.07;95.90;101331.53;5120687;27;51852;-73
2023/09/09 02:31:31;;;;;;;;;26.33;25.33;;;;;23.05;97.16;101328.13;5114284;27;45430;-73
2023/09/09 02:33:56;;;;;;;;;25.67;22.33;;;;;23.02;96.68;101336.50;5100964;27;45307;-73
2023/09/09 02:36:22;;;;;;;;;22.33;19.00;;;;;22.98;96.19;101326.97;5116566;27;50856;-73
2023/09/09 02:38:47;;;;;;;;;21.00;21.00;;;;;22.99;96.54;101334.06;5119049;27;54403;-73
2023/09/09 02:41:12;;;;;;;;;24.67;23.67;;;;;22.97;96.93;101330.66;5111609;27;45404;-73
2023/09/09 02:43:38;;;;;;;;;23.33;22.33;;;;;22.94;96.97;101325.53;5107978;27;45463;-73
2023/09/09 02:46:04;;;;;;;;;26.00;23.33;;;;;22.88;96.90;101325.22;5105378;27;45590;-73
2023/09/09 02:48:29;;;;;;;;;21.33;21.33;;;;;22.86;97.51;101335.31;5100219;27;45284;-73
2023/09/09 02:50:55;;;;;;;;;27.67;22.67;;;;;22.87;97.50;101331.66;5100334;27;45345;-73
2023/09/09 02:53:21;;;;;;;;;24.33;21.67;;;;;22.80;98.02;101324.09;5120750;27;45493;-73
2023/09/09 02:55:47;;;;;;;;;22.00;21.00;;;;;22.83;98.77;101328.38;5112393;27;46221;-72
2023/09/09 02:58:14;;;;;;;;;25.33;21.67;;;;;22.69;98.71;101312.56;5100835;27;45371;-73
2023/09/09 03:00:40;;;;;;;;;21.00;20.33;;;;;22.74;98.39;101321.94;5102385;27;45429;-73
2023/09/09 03:03:05;;;;;;;;;23.33;21.00;;;;;22.72;98.03;101331.16;5117933;27;45467;-72
2023/09/09 03:05:36;;;;;;;;;23.00;21.00;;;;;22.75;98.90;101330.88;5106097;27;45704;-73
2023/09/09 03:08:03;;;;;;;;;26.33;23.00;;;;;22.74;98.98;101334.59;5099700;27;45372;-73
2023/09/09 03:10:28;;;;;;;;;20.33;19.33;;;;;22.69;99.79;101326.03;5113583;27;45522;-73
2023/09/09 03:12:56;;;;;;;;;22.33;21.67;;;;;22.70;99.63;101335.84;5099601;27;45404;-72
2023/09/09 03:15:21;;;;;;;;;27.67;22.67;;;;;22.68;99.00;101341.38;5114034;27;45399;-73
2023/09/09 03:17:47;;;;;;;;;22.67;19.33;;;;;22.62;98.85;101319.47;5109587;27;45497;-72
2023/09/09 03:20:13;;;;;;;;;25.33;24.33;;;;;22.64;99.94;101334.50;5099983;27;45274;-73
2023/09/09 03:22:38;;;;;;;;;22.33;20.67;;;;;22.62;100.00;101331.09;5103355;27;45301;-74
2023/09/09 03:25:04;;;;;;;;;19.67;18.33;;;;;22.52;99.73;101322.13;5104667;27;46409;-73
2023/09/09 03:27:29;;;;;;;;;20.67;16.33;;;;;22.55;99.56;101327.22;5118664;27;45927;-73
2023/09/09 03:29:55;;;;;;;;;21.67;18.67;;;;;22.57;100.00;101329.81;5117911;27;45509;-72
2023/09/09 03:32:20;;;;;;;;;22.33;21.33;;;;;22.56;100.00;101338.88;5104523;27;45595;-73
2023/09/09 03:34:45;;;;;;;;;19.67;19.67;;;;;22.48;100.00;101328.78;5111711;27;46368;-73
2023/09/09 03:37:11;;;;;;;;;23.33;22.00;;;;;22.52;100.00;101334.75;5101150;27;45544;-73
2023/09/09 03:39:36;;;;;;;;;20.67;20.67;;;;;22.42;100.00;101318.53;5099596;27;45361;-72
2023/09/09 03:42:01;;;;;;;;;16.67;16.00;;;;;22.47;100.00;101327.09;5108951;27;45345;-73
2023/09/09 03:44:27;;;;;;;;;19.67;18.00;;;;;22.39;100.00;101317.94;5099023;27;45353;-73
2023/09/09 03:46:52;;;;;;;;;21.33;20.00;;;;;22.42;100.00;101320.38;5099637;27;45358;-73
2023/09/09 03:49:17;;;;;;;;;16.67;16.67;;;;;22.41;100.00;101322.25;5099998;27;45401;-73
2023/09/09 03:51:44;;;;;;;;;21.67;20.67;;;;;22.39;100.00;101331.44;5099320;27;45412;-73
2023/09/09 03:54:10;;;;;;;;;21.33;21.00;;;;;22.29;100.00;101312.50;5098840;27;46867;-73
2023/09/09 03:56:35;;;;;;;;;17.33;17.00;;;;;22.32;100.00;101323.88;5112146;27;45412;-74
2023/09/09 03:59:00;;;;;;;;;18.00;18.00;;;;;22.35;100.00;101336.22;5099553;27;45391;-73
2023/09/09 04:01:26;;;;;;;;;16.33;16.33;;;;;22.23;100.00;101313.91;5106374;27;46183;-73
2023/09/09 04:03:51;;;;;;;;;25.00;20.00;;;;;22.22;100.00;101325.69;5099897;27;46104;-72
2023/09/09 04:06:17;;;;;;;;;20.00;20.00;;;;;22.28;100.00;101343.16;5109743;27;45355;-73
2023/09/09 04:08:42;;;;;;;;;20.67;17.67;;;;;22.20;100.00;101330.34;5102576;27;45337;-73
2023/09/09 04:11:08;;;;;;;;;21.67;19.33;;;;;22.24;100.00;101342.59;5119116;27;45577;-72
2023/09/09 04:13:37;;;;;;;;;20.00;18.67;;;;;22.18;100.00;101331.50;5101585;27;46114;-72
2023/09/09 04:16:03;;;;;;;;;15.67;15.67;;;;;22.22;100.00;101341.00;5115164;27;45303;-73
2023/09/09 04:18:28;;;;;;;;;19.33;19.33;;;;;22.07;100.00;101337.81;5121851;27;45351;-72
2023/09/09 04:20:54;;;;;;;;;22.33;19.33;;;;;22.04;100.00;101321.91;5122076;27;45414;-73
2023/09/09 04:23:19;;;;;;;;;20.00;19.67;;;;;22.13;100.00;101347.19;5118467;27;45437;-73
2023/09/09 04:25:45;;;;;;;;;16.67;15.33;;;;;22.13;100.00;101349.88;5120290;27;45371;-71
2023/09/09 04:28:12;;;;;;;;;20.67;19.67;;;;;22.11;100.00;101341.09;5110448;27;45345;-73
2023/09/09 04:30:38;;;;;;;;;18.67;18.67;;;;;22.09;100.00;101346.59;5122029;27;45382;-72
2023/09/09 04:33:11;;;;;;;;;16.00;16.00;;;;;22.07;100.00;101351.28;5123368;27;45294;-72
2023/09/09 04:35:38;;;;;;;;;20.00;15.00;;;;;22.04;100.00;101348.84;5123079;27;45306;-73
2023/09/09 04:38:03;;;;;;;;;20.00;18.67;;;;;22.02;100.00;101345.41;5123979;27;45301;-73
2023/09/09 04:40:29;;;;;;;;;18.33;16.33;;;;;22.02;100.00;101356.19;5112488;27;45225;-73
2023/09/09 04:42:54;;;;;;;;;17.67;16.33;;;;;21.88;100.00;101329.56;5110651;27;45270;-72
2023/09/09 04:45:20;;;;;;;;;18.00;16.00;;;;;21.90;100.00;101340.22;5114767;27;45362;-72
2023/09/09 04:47:45;;;;;;;;;18.67;17.00;;;;;21.92;100.00;101347.22;5111808;27;45441;-73
2023/09/09 04:50:11;;;;;;;;;16.67;16.00;;;;;21.93;100.00;101338.13;5110597;27;45661;-74
2023/09/09 04:52:38;;;;;;;;;19.67;18.00;;;;;21.90;100.00;101341.09;5115125;27;45995;-72
2023/09/09 04:55:04;;;;;;;;;12.67;12.67;;;;;21.87;100.00;101335.94;5117402;27;45365;-72
2023/09/09 04:57:29;;;;;;;;;17.67;17.33;;;;;21.87;100.00;101341.31;5106303;27;45324;-73
2023/09/09 04:59:54;;;;;;;;;22.00;20.33;;;;;21.86;100.00;101336.91;5117620;27;47008;-72
2023/09/09 05:02:21;;;;;;;;;18.67;18.33;;;;;21.82;100.00;101340.88;5116239;27;51306;-72
2023/09/09 05:04:46;;;;;;;;;20.33;17.33;;;;;21.81;100.00;101344.53;5109675;27;45286;-72
2023/09/09 05:07:11;;;;;;;;;19.33;17.33;;;;;21.83;100.00;101347.94;5100608;27;53555;-72
2023/09/09 05:09:37;;;;;;;;;18.67;16.00;;;;;21.78;100.00;101339.44;5107973;27;45584;-72
2023/09/09 05:12:02;;;;;;;;;15.33;13.33;;;;;21.73;100.00;101347.03;5120153;27;53064;-72
2023/09/09 05:14:27;;;;;;;;;18.00;17.00;;;;;21.79;100.00;101343.84;5114578;27;45979;-73
2023/09/09 05:16:53;;;;;;;;;20.00;16.33;;;;;21.71;100.00;101338.22;5117029;27;45323;-72
2023/09/09 05:19:18;;;;;;;;;19.33;16.33;;;;;21.72;100.00;101338.13;5103518;27;45481;-72
2023/09/09 05:21:43;;;;;;;;;15.00;13.00;;;;;21.75;100.00;101353.16;5107906;27;45853;-72
2023/09/09 05:24:09;;;;;;;;;16.67;15.67;;;;;21.74;100.00;101351.44;5116035;27;45592;-72
2023/09/09 05:26:34;;;;;;;;;15.67;15.67;;;;;21.73;100.00;101344.34;5105977;27;46316;-73
2023/09/09 05:29:01;;;;;;;;;20.67;17.67;;;;;21.66;100.00;101348.56;5110752;27;45223;-73
2023/09/09 05:31:26;;;;;;;;;18.33;16.00;;;;;21.72;100.00;101356.97;5114854;27;47551;-73
2023/09/09 05:33:52;;;;;;;;;17.33;14.33;;;;;21.72;100.00;101353.41;5119703;27;45546;-73
2023/09/09 05:36:17;;;;;;;;;19.33;16.00;;;;;21.60;100.00;101330.19;5108309;27;45356;-72
2023/09/09 05:38:42;;;;;;;;;15.33;15.33;;;;;21.67;100.00;101350.25;5118746;27;45464;-73
2023/09/09 05:41:08;;;;;;;;;17.67;17.67;;;;;21.74;100.00;101365.75;5106909;27;53350;-72
2023/09/09 05:43:33;;;;;;;;;16.00;16.00;;;;;21.69;100.00;101365.28;5120053;27;45529;-73
2023/09/09 05:46:00;;;;;;;;;17.67;17.67;;;;;21.74;100.00;101373.84;5118923;27;45464;-73
2023/09/09 05:48:26;;;;;;;;;11.67;11.67;;;;;21.77;100.00;101375.41;5104280;27;45594;-72
2023/09/09 05:50:51;;;;;;;;;19.33;18.00;;;;;21.76;100.00;101368.31;5118273;27;45433;-73
2023/09/09 05:53:16;;;;;;;;;18.00;14.33;;;;;21.75;100.00;101369.31;5112519;27;45412;-73
2023/09/09 05:55:42;;;;;;;;;17.67;16.00;;;;;21.78;100.00;101372.59;5118543;27;45289;-74
2023/09/09 05:58:07;;;;;;;;;17.00;17.00;;;;;21.83;100.00;101378.44;5108699;27;46233;-72
2023/09/09 06:00:33;;;;;;;;;22.33;19.67;;;;;21.85;100.00;101378.31;5110358;27;46727;-73
2023/09/09 06:02:58;;;;;;;;;19.00;13.00;;;;;21.87;100.00;101370.09;5118731;27;45443;-72
2023/09/09 06:05:24;;;;;;;;;18.67;18.67;;;;;21.88;100.00;101377.19;5108892;27;45262;-72
2023/09/09 06:07:49;;;;;;;;;17.00;14.00;;;;;21.83;100.00;101370.34;5101105;27;45320;-72
2023/09/09 06:10:14;;;;;;;;;23.67;17.67;;;;;21.93;100.00;101386.63;5119852;27;45324;-73
2023/09/09 06:12:40;;;;;;;;;15.33;15.00;;;;;21.91;100.00;101375.13;5111409;27;45293;-73
2023/09/09 06:15:06;;;;;;;;;19.67;18.00;;;;;21.98;100.00;101379.00;5106174;27;46000;-73
2023/09/09 06:17:31;;;;;;;;;22.00;18.00;;;;;22.05;100.00;101384.72;5112111;27;45421;-73
2023/09/09 06:19:57;;;;;;;;;21.00;18.67;;;;;22.11;100.00;101378.81;5100073;27;46255;-72
2023/09/09 06:22:22;;;;;;;;;15.33;14.67;;;;;22.09;100.00;101370.84;5105387;27;45502;-73
2023/09/09 06:24:47;;;;;;;;;19.33;16.33;;;;;22.21;100.00;101385.97;5105340;27;45378;-73
2023/09/09 06:27:13;;;;;;;;;15.67;15.67;;;;;22.29;100.00;101393.38;5112562;27;45343;-72
2023/09/09 06:29:38;;;;;;;;;21.00;21.00;;;;;22.37;100.00;101396.28;5113749;27;45449;-72
2023/09/09 06:32:06;;;;;;;;;16.67;14.67;;;;;22.39;100.00;101386.19;5102500;27;45342;-72
2023/09/09 06:34:31;;;;;;;;;20.33;15.00;;;;;22.54;99.67;101392.09;5103986;27;45377;-73
2023/09/09 06:36:56;;;;;;;;;20.67;18.00;;;;;22.59;98.95;101384.44;5108989;27;45479;-72
2023/09/09 06:39:22;;;;;;;;;21.33;19.00;;;;;22.72;98.27;101395.88;5110689;27;47963;-73
2023/09/09 06:41:47;;;;;;;;;16.67;14.33;;;;;22.74;97.46;101389.38;5099663;27;45387;-74
2023/09/09 06:44:12;;;;;;;;;18.67;17.67;;;;;22.84;97.87;101390.25;5111345;27;58710;-74
2023/09/09 06:46:37;;;;;;;;;24.00;17.33;;;;;22.88;98.06;101398.06;5106914;27;45488;-74
2023/09/09 06:49:03;;;;;;;;;21.33;15.33;;;;;22.87;97.97;101372.97;5106363;27;45294;-75
2023/09/09 06:51:29;;;;;;;;;20.33;19.67;;;;;22.99;96.64;101396.13;5105452;27;45290;-75
2023/09/09 06:53:54;;;;;;;;;16.67;15.00;;;;;23.12;94.87;101403.97;5113173;27;45463;-74
2023/09/09 06:56:19;;;;;;;;;21.33;17.67;;;;;23.17;95.62;101396.31;5105002;27;45286;-74
2023/09/09 06:58:45;;;;;;;;;20.33;17.33;;;;;23.27;95.35;101397.19;5106789;27;57642;-74
2023/09/09 07:01:11;;;;;;;;;19.67;17.00;;;;;23.21;94.32;101370.75;5106654;27;45275;-74
2023/09/09 07:03:36;;;;;;;;;18.33;17.00;;;;;23.34;92.22;101380.28;5116961;27;45666;-74
2023/09/09 07:06:02;;;;;;;;;24.00;21.00;;;;;23.47;90.47;101382.75;5114793;27;45456;-75
2023/09/09 07:08:27;;;;;;;;;25.00;20.33;;;;;23.53;91.00;101373.22;5110204;27;46102;-75
2023/09/09 07:10:53;;;;;;;;;23.67;18.67;;;;;23.57;89.38;101364.69;5108998;27;44770;-74
2023/09/09 07:13:23;;;;;;;;;19.00;18.00;;;;;23.83;89.21;101386.59;5110130;27;47124;-75
2023/09/09 07:15:52;;;;;;;;;21.33;18.33;;;;;23.92;87.99;101391.13;5112499;27;45591;-75
2023/09/09 07:18:18;;;;;;;;;22.67;19.67;;;;;24.01;88.40;101389.41;5105254;27;45612;-75
2023/09/09 07:20:46;;;;;;;;;21.33;19.33;;;;;24.03;88.37;101390.97;5104517;27;45283;-74
2023/09/09 07:23:12;;;;;;;;;20.00;16.00;;;;;24.17;87.02;101387.88;5108847;27;45238;-75
2023/09/09 07:25:37;;;;;;;;;19.00;17.67;;;;;24.21;86.05;101383.84;5105423;27;45242;-75
2023/09/09 07:28:02;;;;;;;;;19.00;15.67;;;;;24.36;85.74;101393.22;5099099;27;57744;-75
2023/09/09 07:30:28;;;;;;;;;17.33;14.33;;;;;24.41;86.58;101379.22;5105150;27;45368;-75
2023/09/09 07:32:53;;;;;;;;;16.67;16.00;;;;;24.57;84.98;101393.00;5104089;27;45275;-75
2023/09/09 07:35:19;;;;;;;;;22.00;19.67;;;;;24.67;84.96;101390.28;5099968;27;45518;-75
2023/09/09 07:37:44;;;;;;;;;20.00;16.00;;;;;24.75;85.01;101388.50;5108939;27;45431;-75
2023/09/09 07:40:10;;;;;;;;;21.33;19.33;;;;;24.84;83.89;101384.06;5104769;27;45440;-75
2023/09/09 07:42:35;;;;;;;;;23.33;21.33;;;;;24.90;82.85;101379.94;5105995;27;45445;-75
2023/09/09 07:45:01;;;;;;;;;18.00;15.33;;;;;25.00;81.00;101378.03;5108221;27;45535;-75
2023/09/09 07:47:26;;;;;;;;;16.33;16.33;;;;;25.08;81.50;101381.66;5105892;27;45422;-75
2023/09/09 07:49:51;;;;;;;;;23.00;18.33;;;;;25.23;81.59;101385.56;5108329;27;45572;-75
2023/09/09 07:52:17;;;;;;;;;18.00;18.00;;;;;25.37;82.32;101390.44;5104051;27;47821;-75
2023/09/09 07:54:42;;;;;;;;;21.67;19.67;;;;;25.46;81.49;101388.66;5115085;27;45384;-75
2023/09/09 07:57:07;;;;;;;;;19.00;17.67;;;;;25.54;80.15;101383.38;5115377;27;47077;-75
2023/09/09 07:59:33;;;;;;;;;14.00;13.00;;;;;25.67;78.11;101393.81;5113799;27;45417;-75
2023/09/09 08:01:58;;;;;;;;;14.67;14.67;;;;;25.73;82.61;101374.22;5115011;27;45316;-74
2023/09/09 08:04:24;;;;;;;;;17.67;17.67;;;;;25.91;77.47;101391.34;5103515;27;45318;-74
2023/09/09 08:06:52;;;;;;;;;13.67;12.33;;;;;26.05;73.85;101398.88;5119854;27;46876;-74
2023/09/09 08:09:18;;;;;;;;;13.33;13.00;;;;;26.15;74.89;101409.63;5121444;27;45460;-75
2023/09/09 08:11:43;;;;;;;;;16.00;13.00;;;;;26.28;72.71;101408.25;5110513;27;45241;-74
2023/09/09 08:14:09;;;;;;;;;12.00;12.00;;;;;26.41;71.77;101403.25;5105166;27;49460;-75
2023/09/09 08:16:34;;;;;;;;;14.67;11.67;;;;;26.54;69.75;101400.09;5109245;27;45447;-75
2023/09/09 08:19:00;;;;;;;;;7.00;7.00;;;;;26.58;69.92;101398.75;5106481;27;45295;-74
2023/09/09 08:21:25;;;;;;;;;11.33;11.00;;;;;26.75;67.63;101405.13;5113322;27;45395;-75
2023/09/09 08:23:52;;;;;;;;;14.00;12.00;;;;;26.92;67.03;101402.38;5120417;27;48938;-75
2023/09/09 08:26:17;;;;;;;;;11.33;10.33;;;;;27.07;69.44;101407.16;5109523;27;45456;-74
2023/09/09 08:28:43;;;;;;;;;15.00;13.33;;;;;27.13;67.67;101398.34;5103142;27;45438;-75
2023/09/09 08:31:08;;;;;;;;;12.00;11.00;;;;;27.33;68.94;101407.91;5106030;27;45504;-75
2023/09/09 08:33:33;;;;;;;;;12.33;12.33;;;;;27.43;67.59;101400.47;5112166;27;45454;-76
2023/09/09 08:36:00;;;;;;;;;8.00;8.00;;;;;27.62;65.96;101408.34;5102983;27;45599;-74
2023/09/09 08:38:26;;;;;;;;;10.00;10.00;;;;;27.76;66.29;101409.56;5101413;27;45461;-74
2023/09/09 08:41:08;;;;;;;;;11.33;10.33;;;;;27.84;60.64;101401.41;5110772;27;45389;-75
2023/09/09 08:44:00;;;;;;;;;13.33;11.67;;;;;27.95;60.87;101376.59;5105695;27;45365;-74
2023/09/09 08:46:25;;;;;;;;;12.33;12.00;;;;;28.12;63.58;101389.19;5100464;27;45711;-75
2023/09/09 08:48:52;;;;;;;;;13.00;9.67;;;;;28.29;61.63;101399.03;5105767;27;45369;-75
2023/09/09 08:51:24;;;;;;;;;13.67;13.00;;;;;28.46;61.62;101408.03;5105787;27;45425;-75
2023/09/09 08:53:52;;;;;;;;;11.00;11.00;;;;;28.59;58.67;101396.59;5112440;27;45797;-75
2023/09/09 08:56:18;;;;;;;;;13.00;10.00;;;;;28.70;58.86;101396.22;5105169;27;45405;-75
2023/09/09 08:58:44;;;;;;;;;11.67;11.67;;;;;28.77;58.37;101392.63;5112120;27;45437;-75
2023/09/09 09:01:11;;;;;;;;;13.00;10.33;;;;;28.96;59.72;101399.53;5118598;27;45447;-75
2023/09/09 09:03:37;;;;;;;;;11.33;11.00;;;;;28.98;56.80;101386.59;5106713;27;45409;-75
2023/09/09 09:06:05;;;;;;;;;12.67;11.00;;;;;29.11;54.36;101386.00;5101419;27;46338;-75
2023/09/09 09:08:33;;;;;;;;;9.00;9.00;;;;;29.23;56.94;101381.84;5109149;27;45563;-75
2023/09/09 09:11:02;;;;;;;;;13.33;12.00;;;;;29.35;55.27;101380.47;5109806;27;45464;-75
2023/09/09 09:13:31;;;;;;;;;12.33;12.00;;;;;29.45;53.27;101381.91;5107110;27;45528;-75
2023/09/09 09:15:56;;;;;;;;;11.00;10.00;;;;;29.52;54.41;101376.56;5111836;27;45489;-75
2023/09/09 09:18:22;;;;;;;;;15.33;10.33;;;;;29.63;55.61;101372.59;5105679;27;45307;-76
2023/09/09 09:20:49;;;;;;;;;10.00;10.00;;;;;29.83;53.68;101392.91;5100625;27;45440;-76
2023/09/09 09:23:14;;;;;;;;;14.67;12.00;;;;;29.81;54.26;101368.50;5101172;27;45414;-74
2023/09/09 09:25:42;;;;;;;;;10.33;10.00;;;;;29.92;51.65;101380.91;5118609;27;47222;-75
2023/09/09 09:28:08;;;;;;;;;15.33;11.00;;;;;30.09;54.79;101396.09;5121166;27;45212;-74
2023/09/09 09:30:34;;;;;;;;;11.00;11.00;;;;;30.20;55.46;101398.34;5116271;27;45312;-74
2023/09/09 09:32:59;;;;;;;;;12.67;12.67;;;;;30.31;52.66;101389.72;5109735;27;45461;-74
2023/09/09 09:35:26;;;;;;;;;15.00;14.00;;;;;30.43;53.73;101391.00;5103356;27;46301;-74
2023/09/09 09:38:03;;;;;;;;;10.00;10.00;;;;;30.48;50.78;101391.28;5116664;27;45651;-74
2023/09/09 09:40:30;;;;;;;;;13.33;11.33;;;;;30.52;49.19;101385.44;5102961;27;45334;-75
2023/09/09 09:42:56;;;;;;;;;16.67;14.67;;;;;30.64;50.28;101394.84;5131841;27;45538;-75
2023/09/09 09:45:25;;;;;;;;;11.67;10.67;;;;;30.71;50.13;101395.81;5104079;27;45431;-74
2023/09/09 09:47:52;;;;;;;;;12.67;11.33;;;;;30.79;49.64;101393.00;5104109;27;45436;-75
2023/09/09 09:50:30;;;;;;;;;8.33;8.33;;;;;30.85;51.08;101397.69;5102979;27;45420;-74
2023/09/09 09:53:03;;;;;;;;;12.33;11.67;;;;;30.92;49.57;101390.44;5111044;27;45365;-75
2023/09/09 09:55:30;;;;;;;;;11.33;10.67;;;;;30.99;50.56;101394.97;5107524;27;46066;-74
2023/09/09 09:57:57;;;;;;;;;14.67;12.00;;;;;31.08;49.02;101390.25;5109034;27;45432;-75
2023/09/09 10:00:24;;;;;;;;;14.67;13.67;;;;;31.12;48.52;101391.53;5104636;27;45357;-75
2023/09/09 10:03:02;;;;;;;;;14.33;13.00;;;;;31.16;46.39;101390.13;5100588;27;45414;-75
2023/09/09 10:05:29;;;;;;;;;30.00;17.67;;;;;31.21;48.18;101386.81;5100420;27;47666;-74
2023/09/09 10:08:03;;;;;;;;;11.33;9.67;;;;;31.23;49.64;101390.19;5113218;27;45428;-74
2023/09/09 10:10:33;;;;;;;;;14.00;12.67;;;;;31.26;48.20;101379.72;5104891;27;45497;-75
2023/09/09 10:13:15;;;;;;;;;10.67;10.67;;;;;31.31;47.54;101390.94;5119109;27;45409;-75
2023/09/09 10:15:42;;;;;;;;;14.33;11.33;;;;;31.27;47.75;101361.44;5104771;27;45466;-75
2023/09/09 10:18:09;;;;;;;;;14.33;13.00;;;;;31.38;48.66;101378.19;5108723;27;45385;-75
2023/09/09 10:20:36;;;;;;;;;19.67;11.67;;;;;31.36;46.21;101369.31;5114308;27;45449;-75
2023/09/09 10:23:04;;;;;;;;;12.33;12.33;;;;;31.44;47.85;101391.09;5099585;27;45542;-75
2023/09/09 10:25:30;;;;;;;;;11.67;11.00;;;;;31.39;46.15;101366.19;5117341;27;47871;-74
2023/09/09 10:27:57;;;;;;;;;11.67;11.67;;;;;31.46;45.35;101379.94;5120191;27;45615;-75
2023/09/09 10:30:23;;;;;;;;;14.33;12.67;;;;;31.42;45.89;101367.69;5118915;27;45356;-74
2023/09/09 10:32:49;;;;;;;;;15.67;13.67;;;;;31.50;46.33;101373.09;5111063;27;45461;-75
2023/09/09 10:35:17;;;;;;;;;12.33;12.33;;;;;31.44;45.87;101368.38;5113869;27;46410;-75
2023/09/09 10:37:43;;;;;;;;;14.00;11.67;;;;;31.52;46.04;101375.59;5105288;27;45357;-75
2023/09/09 10:40:10;;;;;;;;;17.00;15.67;;;;;31.49;46.75;101379.56;5098428;27;45395;-74
2023/09/09 10:42:38;;;;;;;;;12.33;12.33;;;;;31.56;44.28;101380.50;5109866;27;45505;-75
2023/09/09 10:45:39;;;;;;;;;12.67;11.00;;;;;31.61;46.83;101372.56;5100884;27;46408;-75
2023/09/09 10:48:07;;;;;;;;;13.33;12.67;;;;;31.62;47.04;101365.19;5093917;27;45566;-74
2023/09/09 10:50:50;;;;;;;;;13.00;11.33;;;;;31.63;46.49;101369.63;5115732;27;45455;-74
2023/09/09 10:53:16;;;;;;;;;14.67;14.00;;;;;31.69;46.28;101361.50;5114655;27;45480;-74
2023/09/09 10:55:42;;;;;;;;;11.33;9.33;;;;;31.70;43.83;101360.47;5109280;27;45922;-74
2023/09/09 10:58:08;;;;;;;;;11.00;11.00;;;;;31.72;44.11;101360.25;5112034;27;45654;-74
2023/09/09 11:00:38;;;;;;;;;20.67;20.00;;;;;31.75;45.40;101357.97;5099616;27;45458;-75
2023/09/09 11:03:09;;;;;;;;;12.33;12.33;;;;;31.76;46.64;101342.41;5111142;27;45621;-74